Historyczne dane pomiarowe

Dodano dane terminowe – wersja testowa.

Dane z okresu 1951-2019

Wersja bazy: 1.34 [2019-03-16, lista zmian], aktualizacja planowana na 2019-04-15

Dane meteo z obszaru Polski uzyskane na podstawie danych udostępnionych przez Instytut Meteorologii i Gospodarki Wodnej – Państwowy Instytut Badawczy.

 

Wybierz Datę:    

       

TemperaturaWilgotnośćWiatrCiśnienieOpadyŚniegCzas trwania zjawisk
 Stacja t tx tn tng RH VA  wxwx mslp ppp RRR   cm mm wxwxwxwxwxwxwx
1961-08-14 15.1 21.1 8.2--- 5.3 1.0---- 0.0------------
1961-08-13 14.4 17.9 11.9--- 6.7 3.3---- 0.0------------
1961-08-12 17.3 22.1 14.0--- 7.3 1.0---- 0.0------------
1961-08-11 17.0 20.8 16.2--- 8.0 1.7---- 0.0------------
1961-08-10 20.1 25.8 16.0--- 5.7 3.7---- 10.0------------
1961-08-09 19.3 24.7 15.5--- 4.7 1.7---- 7.7------------
1961-08-08 18.0 22.9 13.6--- 4.3 1.0---- 0.0------------
1961-08-07 15.7 23.0 13.6--- 6.7 0.0---- 11.5------------
1961-08-06 23.8 29.9 16.0--- 4.0 1.3---- 1.6------------
1961-08-05 18.5 26.1 13.4--- 4.7 0.0---- 0.0------------
1961-08-04 14.6 20.0 7.7--- 7.3 0.0---- 0.0------------
1961-08-03 14.1 18.5 11.1--- 8.0 0.3---- 0.0------------
1961-08-02 15.7 24.0 9.7--- 4.7 0.0---- 5.0------------
1961-08-01 13.3 16.9 11.6--- 6.7 2.7---- 2.4------------
1961-07-31 13.9 15.9 13.1--- 8.0 6.0---- 69.4------------
1961-07-30 15.4 18.5 12.1--- 4.7 0.0---- 0.0------------
1961-07-29 14.6 19.0 12.6--- 5.3 1.3---- 0.0------------
1961-07-28 15.7 20.5 14.5--- 8.0 0.7---- 7.2------------
1961-07-27 19.1 25.3 15.5--- 6.3 2.3---- 0.0------------
1961-07-26 17.0 22.2 11.1--- 7.3 1.7---- 0.0------------
1961-07-25 14.0 18.1 11.4--- 8.0 1.3---- 0.0------------
1961-07-24 15.2 19.2 11.6--- 6.0 2.0---- 0.0------------
1961-07-23 13.7 17.4 12.1--- 7.3 1.3---- 0.0------------
1961-07-22 15.7 21.8 12.1--- 8.0 1.3---- 0.0------------
1961-07-21 15.7 18.7 12.6--- 8.0 0.7---- 2.5------------
1961-07-20 14.5 22.7 9.8--- 5.3 1.0---- 8.3------------
1961-07-19 13.9 19.7 10.6--- 5.7 0.0---- 2.0------------
1961-07-18 14.4 18.9 9.2--- 7.3 0.7---- 2.1------------
1961-07-17 15.7 22.7 9.7--- 5.3 1.0---- 15.7------------
1961-07-16 14.2 19.0 12.4--- 8.0 1.3---- 11.8------------
1961-07-15 16.8 24.2 11.1--- 3.3 0.0---- 5.2------------
1961-07-14 13.2 18.1 11.6--- 5.3 3.0---- 0.0------------
1961-07-13 20.7 28.9 16.5--- 5.7 1.3---- 0.0------------
1961-07-12 19.5 26.1 14.0--- 4.3 0.3---- 0.0------------
1961-07-11 16.3 22.3 8.6--- 4.0 3.0---- 17.2------------
1961-07-10 13.2 18.6 10.1--- 6.7 1.7---- 0.9------------
1961-07-09 14.2 19.2 10.6--- 7.7 1.7---- 3.0------------
1961-07-08 14.9 22.5 9.7--- 5.3 1.0---- 0.0------------
1961-07-07 12.4 16.9 9.7--- 8.0 1.3---- 0.0------------
1961-07-06 10.9 18.3 7.2--- 7.0 1.3---- 2.2------------
1961-07-05 13.3 18.5 11.6--- 7.0 2.3---- 1.2------------
1961-07-04 16.8 26.3 13.7--- 7.0 2.7---- 2.5------------
1961-07-03 25.3 33.8 18.9--- 2.3 2.0---- 0.0------------
1961-07-02 24.1 30.6 11.4--- 0.0 0.0---- 0.0------------
1961-07-01 18.3 23.5 14.5--- 0.0 0.3---- 0.0------------
1961-06-30 19.7 26.6 15.0--- 0.0 1.7---- 0.0------------
1961-06-29 16.2 22.0 10.6--- 4.3 1.3---- 0.0------------
1961-06-28 14.2 22.0 10.1--- 4.3 4.7---- 0.0------------
1961-06-27 23.4 31.9 16.0--- 6.3 1.3---- 0.3------------
1961-06-26 21.0 28.9 17.5--- 0.3 0.7---- 0.0------------
1961-06-25 21.0 28.6 12.3--- 0.0 0.3---- 0.0------------
1961-06-24 18.3 23.5 11.6--- 2.0 0.7---- 0.0------------
1961-06-23 16.7 24.5 10.6--- 0.7 1.0---- 0.0------------
1961-06-22 17.3 23.0 6.2--- 3.0 0.7---- 0.0------------
1961-06-21 18.3 24.0 10.7--- 6.3 2.0---- 0.7------------
1961-06-20 14.0 20.8 9.5--- 2.0 1.7---- 0.0------------
1961-06-19 16.0 21.1 13.6--- 6.7 1.0---- 0.0------------
1961-06-18 20.2 28.3 10.6--- 1.7 1.7---- 0.0------------
1961-06-17 18.3 23.8 8.7--- 0.0 0.7---- 0.0------------
1961-06-16 12.3 18.5 10.1--- 5.0 1.3---- 0.0------------
1034.5 ms

 

Źródłem pochodzenia danych jest Instytut Meteorologii i Gospodarki Wodnej – Państwowy Instytut Badawczy. Dane Instytutu Meteorologii i Gospodarki Wodnej – Państwowego Instytutu Badawczego zostały przetworzone.

Dane źródłowe można odnaleźć na stronie https://dane.imgw.pl